sensor_id;sensor_type;location;lat;lon;timestamp;pressure;altitude;pressure_sealevel;temperature;humidity
16738;BME280;17906;47.684;10.806;2022-08-01T00:02:08;93391.19;;;16.05;73.38
16738;BME280;17906;47.684;10.806;2022-08-01T00:04:35;93391.72;;;16.07;72.01
16738;BME280;17906;47.684;10.806;2022-08-01T00:07:03;93395.28;;;16.03;71.57
16738;BME280;17906;47.684;10.806;2022-08-01T00:09:29;93401.03;;;16.06;71.52
16738;BME280;17906;47.684;10.806;2022-08-01T00:11:56;93380.25;;;16.05;72.53
16738;BME280;17906;47.684;10.806;2022-08-01T00:14:23;93378.06;;;16.07;71.97
16738;BME280;17906;47.684;10.806;2022-08-01T00:16:49;93376.91;;;16.13;71.03
16738;BME280;17906;47.684;10.806;2022-08-01T00:19:16;93378.84;;;16.18;69.60
16738;BME280;17906;47.684;10.806;2022-08-01T00:21:42;93386.47;;;16.21;70.79
16738;BME280;17906;47.684;10.806;2022-08-01T00:24:10;93387.28;;;16.27;69.58
16738;BME280;17906;47.684;10.806;2022-08-01T00:26:37;93387.53;;;16.30;70.99
16738;BME280;17906;47.684;10.806;2022-08-01T00:29:04;93384.25;;;16.28;70.70
16738;BME280;17906;47.684;10.806;2022-08-01T00:31:30;93387.81;;;16.29;69.73
16738;BME280;17906;47.684;10.806;2022-08-01T00:33:57;93389.75;;;16.28;69.11
16738;BME280;17906;47.684;10.806;2022-08-01T00:36:23;93394.91;;;16.35;68.69
16738;BME280;17906;47.684;10.806;2022-08-01T00:38:50;93389.97;;;16.37;69.36
16738;BME280;17906;47.684;10.806;2022-08-01T00:41:18;93383.16;;;16.39;70.64
16738;BME280;17906;47.684;10.806;2022-08-01T00:43:44;93399.28;;;16.41;71.70
16738;BME280;17906;47.684;10.806;2022-08-01T00:46:11;93402.84;;;16.41;71.25
16738;BME280;17906;47.684;10.806;2022-08-01T00:48:37;93403.13;;;16.40;70.83
16738;BME280;17906;47.684;10.806;2022-08-01T00:51:04;93422.56;;;16.28;70.87
16738;BME280;17906;47.684;10.806;2022-08-01T00:53:31;93415.22;;;16.18;67.68
16738;BME280;17906;47.684;10.806;2022-08-01T00:55:58;93427.22;;;16.22;69.57
16738;BME280;17906;47.684;10.806;2022-08-01T00:58:26;93411.09;;;16.21;68.20
16738;BME280;17906;47.684;10.806;2022-08-01T01:00:54;93424.22;;;16.14;69.02
16738;BME280;17906;47.684;10.806;2022-08-01T01:03:22;93423.41;;;16.18;68.54
16738;BME280;17906;47.684;10.806;2022-08-01T01:06:01;93419.28;;;16.21;68.11
16738;BME280;17906;47.684;10.806;2022-08-01T01:08:35;93413.00;;;16.20;67.77
16738;BME280;17906;47.684;10.806;2022-08-01T01:11:10;93420.69;;;16.13;67.79
16738;BME280;17906;47.684;10.806;2022-08-01T01:13:45;93418.78;;;16.04;67.77
16738;BME280;17906;47.684;10.806;2022-08-01T01:16:14;93420.72;;;16.03;66.49
16738;BME280;17906;47.684;10.806;2022-08-01T01:18:45;93421.28;;;16.05;66.41
16738;BME280;17906;47.684;10.806;2022-08-01T01:21:35;93419.63;;;15.99;67.37
16738;BME280;17906;47.684;10.806;2022-08-01T01:24:16;93417.19;;;15.87;68.68
16738;BME280;17906;47.684;10.806;2022-08-01T01:26:51;93429.78;;;15.78;69.82
16738;BME280;17906;47.684;10.806;2022-08-01T01:29:23;93424.06;;;15.64;69.98
16738;BME280;17906;47.684;10.806;2022-08-01T01:31:56;93435.28;;;15.53;70.28
16738;BME280;17906;47.684;10.806;2022-08-01T01:34:24;93433.09;;;15.45;70.86
16738;BME280;17906;47.684;10.806;2022-08-01T01:36:54;93433.94;;;15.40;71.33
16738;BME280;17906;47.684;10.806;2022-08-01T01:39:24;93437.72;;;15.24;71.41
16738;BME280;17906;47.684;10.806;2022-08-01T01:41:53;93438.81;;;15.18;72.35
16738;BME280;17906;47.684;10.806;2022-08-01T01:44:23;93434.41;;;15.17;69.99
16738;BME280;17906;47.684;10.806;2022-08-01T01:46:52;93440.44;;;15.24;71.23
16738;BME280;17906;47.684;10.806;2022-08-01T01:49:21;93440.19;;;15.20;70.54
16738;BME280;17906;47.684;10.806;2022-08-01T01:51:50;93442.34;;;15.08;70.48
16738;BME280;17906;47.684;10.806;2022-08-01T01:54:18;93433.59;;;14.96;72.52
16738;BME280;17906;47.684;10.806;2022-08-01T01:56:46;93430.84;;;14.86;72.33
16738;BME280;17906;47.684;10.806;2022-08-01T01:59:18;93431.66;;;14.76;72.34
16738;BME280;17906;47.684;10.806;2022-08-01T02:01:49;93433.81;;;14.69;73.44
16738;BME280;17906;47.684;10.806;2022-08-01T02:04:18;93435.06;;;14.41;74.15
16738;BME280;17906;47.684;10.806;2022-08-01T02:06:46;93433.50;;;14.55;74.31
16738;BME280;17906;47.684;10.806;2022-08-01T02:09:16;93441.38;;;14.51;74.60
16738;BME280;17906;47.684;10.806;2022-08-01T02:11:45;93440.84;;;14.49;74.64
16738;BME280;17906;47.684;10.806;2022-08-01T02:14:13;93444.09;;;14.46;75.52
16738;BME280;17906;47.684;10.806;2022-08-01T02:16:42;93448.47;;;14.47;75.60
16738;BME280;17906;47.684;10.806;2022-08-01T02:19:12;93443.84;;;14.48;75.13
16738;BME280;17906;47.684;10.806;2022-08-01T02:21:40;93436.19;;;14.50;75.66
16738;BME280;17906;47.684;10.806;2022-08-01T02:24:16;93440.56;;;14.51;75.81
16738;BME280;17906;47.684;10.806;2022-08-01T02:26:50;93439.72;;;14.45;76.23
16738;BME280;17906;47.684;10.806;2022-08-01T02:29:24;93432.91;;;14.43;75.95
16738;BME280;17906;47.684;10.806;2022-08-01T02:31:54;93444.38;;;14.45;76.02
16738;BME280;17906;47.684;10.806;2022-08-01T02:34:25;93440.78;;;14.39;75.92
16738;BME280;17906;47.684;10.806;2022-08-01T02:36:58;93436.16;;;14.40;76.42
16738;BME280;17906;47.684;10.806;2022-08-01T02:39:26;93439.38;;;14.32;76.33
16738;BME280;17906;47.684;10.806;2022-08-01T02:42:04;93434.16;;;14.25;76.21
16738;BME280;17906;47.684;10.806;2022-08-01T02:44:36;93439.25;;;14.06;77.05
16738;BME280;17906;47.684;10.806;2022-08-01T02:47:03;93438.47;;;14.11;77.39
16738;BME280;17906;47.684;10.806;2022-08-01T02:49:35;93446.06;;;14.04;77.42
16738;BME280;17906;47.684;10.806;2022-08-01T02:52:05;93439.72;;;13.88;77.70
16738;BME280;17906;47.684;10.806;2022-08-01T02:54:33;93449.19;;;13.80;76.62
16738;BME280;17906;47.684;10.806;2022-08-01T02:57:00;93447.50;;;13.74;76.79
16738;BME280;17906;47.684;10.806;2022-08-01T02:59:30;93445.53;;;13.64;77.09
16738;BME280;17906;47.684;10.806;2022-08-01T03:01:59;93434.16;;;13.73;77.25
16738;BME280;17906;47.684;10.806;2022-08-01T03:04:28;93448.06;;;13.76;78.59
16738;BME280;17906;47.684;10.806;2022-08-01T03:06:57;93441.03;;;13.80;78.20
16738;BME280;17906;47.684;10.806;2022-08-01T03:09:25;93455.72;;;13.79;78.95
16738;BME280;17906;47.684;10.806;2022-08-01T03:11:55;93449.47;;;13.79;79.35
16738;BME280;17906;47.684;10.806;2022-08-01T03:14:23;93457.09;;;13.82;79.06
16738;BME280;17906;47.684;10.806;2022-08-01T03:16:52;93462.78;;;13.75;78.78
16738;BME280;17906;47.684;10.806;2022-08-01T03:19:20;93456.88;;;13.51;79.54
16738;BME280;17906;47.684;10.806;2022-08-01T03:21:49;93457.59;;;13.37;80.72
16738;BME280;17906;47.684;10.806;2022-08-01T03:24:19;93462.53;;;13.40;80.33
16738;BME280;17906;47.684;10.806;2022-08-01T03:26:48;93461.34;;;13.30;79.57
16738;BME280;17906;47.684;10.806;2022-08-01T03:29:20;93457.22;;;13.28;80.30
16738;BME280;17906;47.684;10.806;2022-08-01T03:31:48;93462.56;;;13.18;80.56
16738;BME280;17906;47.684;10.806;2022-08-01T03:34:15;93462.06;;;13.21;80.66
16738;BME280;17906;47.684;10.806;2022-08-01T03:36:46;93469.00;;;13.06;80.75
16738;BME280;17906;47.684;10.806;2022-08-01T03:39:14;93470.66;;;13.07;80.98
16738;BME280;17906;47.684;10.806;2022-08-01T03:41:50;93468.88;;;12.91;81.79
16738;BME280;17906;47.684;10.806;2022-08-01T03:44:20;93464.25;;;12.92;81.53
16738;BME280;17906;47.684;10.806;2022-08-01T03:46:52;93464.97;;;12.82;81.96
16738;BME280;17906;47.684;10.806;2022-08-01T03:49:23;93465.81;;;12.88;82.52
16738;BME280;17906;47.684;10.806;2022-08-01T03:51:50;93469.84;;;12.80;83.61
16738;BME280;17906;47.684;10.806;2022-08-01T03:54:21;93474.13;;;12.76;83.56
16738;BME280;17906;47.684;10.806;2022-08-01T03:56:51;93471.38;;;12.71;83.61
16738;BME280;17906;47.684;10.806;2022-08-01T03:59:18;93467.50;;;12.67;82.41
16738;BME280;17906;47.684;10.806;2022-08-01T04:01:45;93471.06;;;12.67;82.49
16738;BME280;17906;47.684;10.806;2022-08-01T04:04:13;93472.75;;;12.73;82.16
16738;BME280;17906;47.684;10.806;2022-08-01T04:06:40;93465.31;;;12.64;82.26
16738;BME280;17906;47.684;10.806;2022-08-01T04:09:07;93463.41;;;12.64;82.29
16738;BME280;17906;47.684;10.806;2022-08-01T04:11:34;93467.63;;;12.50;83.01
16738;BME280;17906;47.684;10.806;2022-08-01T04:14:02;93469.94;;;12.41;84.05
16738;BME280;17906;47.684;10.806;2022-08-01T04:16:28;93470.84;;;12.47;83.75
16738;BME280;17906;47.684;10.806;2022-08-01T04:18:55;93472.63;;;12.36;84.90
16738;BME280;17906;47.684;10.806;2022-08-01T04:21:25;93469.66;;;12.38;84.71
16738;BME280;17906;47.684;10.806;2022-08-01T04:23:54;93478.38;;;12.40;84.91
16738;BME280;17906;47.684;10.806;2022-08-01T04:26:23;93481.38;;;12.43;84.70
16738;BME280;17906;47.684;10.806;2022-08-01T04:28:52;93483.94;;;12.50;84.65
16738;BME280;17906;47.684;10.806;2022-08-01T04:31:22;93490.31;;;12.39;83.48
16738;BME280;17906;47.684;10.806;2022-08-01T04:33:53;93487.59;;;12.39;83.90
16738;BME280;17906;47.684;10.806;2022-08-01T04:36:23;93492.72;;;12.35;84.57
16738;BME280;17906;47.684;10.806;2022-08-01T04:38:54;93495.38;;;12.30;83.83
16738;BME280;17906;47.684;10.806;2022-08-01T04:41:22;93492.81;;;12.24;84.49
16738;BME280;17906;47.684;10.806;2022-08-01T04:43:49;93494.25;;;12.26;83.83
16738;BME280;17906;47.684;10.806;2022-08-01T04:46:18;93500.13;;;12.40;84.56
16738;BME280;17906;47.684;10.806;2022-08-01T04:48:47;93497.66;;;12.38;85.24
16738;BME280;17906;47.684;10.806;2022-08-01T04:51:14;93505.88;;;12.43;85.28
16738;BME280;17906;47.684;10.806;2022-08-01T04:53:41;93506.75;;;12.49;85.07
16738;BME280;17906;47.684;10.806;2022-08-01T04:56:08;93505.69;;;12.50;86.01
16738;BME280;17906;47.684;10.806;2022-08-01T04:58:38;93501.69;;;12.58;86.29
16738;BME280;17906;47.684;10.806;2022-08-01T05:01:05;93493.16;;;12.71;86.04
16738;BME280;17906;47.684;10.806;2022-08-01T05:03:31;93509.31;;;12.83;86.51
16738;BME280;17906;47.684;10.806;2022-08-01T05:05:59;93499.38;;;12.93;86.68
16738;BME280;17906;47.684;10.806;2022-08-01T05:08:26;93493.81;;;13.10;85.10
16738;BME280;17906;47.684;10.806;2022-08-01T05:10:52;93497.22;;;13.22;86.07
16738;BME280;17906;47.684;10.806;2022-08-01T05:13:19;93503.06;;;13.36;86.28
16738;BME280;17906;47.684;10.806;2022-08-01T05:15:46;93502.91;;;13.48;85.67
16738;BME280;17906;47.684;10.806;2022-08-01T05:18:12;93500.78;;;13.55;85.86
16738;BME280;17906;47.684;10.806;2022-08-01T05:20:40;93494.34;;;13.66;84.84
16738;BME280;17906;47.684;10.806;2022-08-01T05:23:08;93498.78;;;13.77;84.37
16738;BME280;17906;47.684;10.806;2022-08-01T05:25:34;93502.41;;;13.93;84.28
16738;BME280;17906;47.684;10.806;2022-08-01T05:28:01;93494.03;;;14.05;85.01
16738;BME280;17906;47.684;10.806;2022-08-01T05:30:28;93491.16;;;14.21;84.51
16738;BME280;17906;47.684;10.806;2022-08-01T05:32:54;93497.22;;;14.34;85.32
16738;BME280;17906;47.684;10.806;2022-08-01T05:35:21;93495.94;;;14.46;84.87
16738;BME280;17906;47.684;10.806;2022-08-01T05:37:48;93491.06;;;14.59;84.71
16738;BME280;17906;47.684;10.806;2022-08-01T05:40:16;93497.41;;;14.74;83.34
16738;BME280;17906;47.684;10.806;2022-08-01T05:42:42;93498.28;;;14.90;82.25
16738;BME280;17906;47.684;10.806;2022-08-01T05:45:09;93497.78;;;15.08;83.03
16738;BME280;17906;47.684;10.806;2022-08-01T05:47:36;93492.88;;;15.26;81.74
16738;BME280;17906;47.684;10.806;2022-08-01T05:50:04;93494.56;;;15.47;81.76
16738;BME280;17906;47.684;10.806;2022-08-01T05:52:30;93489.41;;;15.66;80.54
16738;BME280;17906;47.684;10.806;2022-08-01T05:54:57;93505.78;;;15.86;78.47
16738;BME280;17906;47.684;10.806;2022-08-01T05:57:25;93498.66;;;16.01;77.78
16738;BME280;17906;47.684;10.806;2022-08-01T05:59:51;93494.53;;;16.03;78.34
16738;BME280;17906;47.684;10.806;2022-08-01T06:02:18;93489.63;;;16.10;77.63
16738;BME280;17906;47.684;10.806;2022-08-01T06:04:44;93499.16;;;16.28;76.37
16738;BME280;17906;47.684;10.806;2022-08-01T06:07:11;93497.75;;;16.46;76.33
16738;BME280;17906;47.684;10.806;2022-08-01T06:09:37;93495.81;;;16.57;75.57
16738;BME280;17906;47.684;10.806;2022-08-01T06:12:05;93494.41;;;16.69;76.06
16738;BME280;17906;47.684;10.806;2022-08-01T06:14:33;93499.88;;;16.74;76.55
16738;BME280;17906;47.684;10.806;2022-08-01T06:16:59;93498.16;;;16.89;75.68
16738;BME280;17906;47.684;10.806;2022-08-01T06:19:26;93495.41;;;16.94;75.26
16738;BME280;17906;47.684;10.806;2022-08-01T06:21:52;93490.47;;;16.91;76.20
16738;BME280;17906;47.684;10.806;2022-08-01T06:24:19;93500.06;;;16.93;76.34
16738;BME280;17906;47.684;10.806;2022-08-01T06:26:47;93500.28;;;17.02;74.77
16738;BME280;17906;47.684;10.806;2022-08-01T06:29:14;93492.53;;;17.19;72.10
16738;BME280;17906;47.684;10.806;2022-08-01T06:31:42;93494.59;;;17.43;70.96
16738;BME280;17906;47.684;10.806;2022-08-01T06:34:09;93492.31;;;17.55;71.15
16738;BME280;17906;47.684;10.806;2022-08-01T06:36:35;93501.34;;;17.55;71.73
16738;BME280;17906;47.684;10.806;2022-08-01T06:39:02;93494.91;;;17.75;67.95
16738;BME280;17906;47.684;10.806;2022-08-01T06:41:28;93497.25;;;17.87;68.56
16738;BME280;17906;47.684;10.806;2022-08-01T06:43:55;93500.72;;;18.03;66.47
16738;BME280;17906;47.684;10.806;2022-08-01T06:46:21;93498.44;;;18.10;67.08
16738;BME280;17906;47.684;10.806;2022-08-01T06:48:49;93498.84;;;18.27;65.77
16738;BME280;17906;47.684;10.806;2022-08-01T06:51:16;93500.69;;;18.37;66.11
16738;BME280;17906;47.684;10.806;2022-08-01T06:53:45;93491.28;;;18.43;63.34
16738;BME280;17906;47.684;10.806;2022-08-01T06:56:11;93488.41;;;18.53;62.41
16738;BME280;17906;47.684;10.806;2022-08-01T06:58:38;93493.63;;;18.78;63.12
16738;BME280;17906;47.684;10.806;2022-08-01T07:01:05;93491.94;;;18.82;62.51
16738;BME280;17906;47.684;10.806;2022-08-01T07:03:33;93496.78;;;18.91;61.68
16738;BME280;17906;47.684;10.806;2022-08-01T07:06:01;93499.19;;;18.97;61.78
16738;BME280;17906;47.684;10.806;2022-08-01T07:08:28;93493.34;;;19.04;61.23
16738;BME280;17906;47.684;10.806;2022-08-01T07:10:54;93501.16;;;19.16;61.24
16738;BME280;17906;47.684;10.806;2022-08-01T07:13:24;93493.59;;;19.45;56.92
16738;BME280;17906;47.684;10.806;2022-08-01T07:15:51;93492.19;;;19.66;58.39
16738;BME280;17906;47.684;10.806;2022-08-01T07:18:18;93490.59;;;19.98;57.57
16738;BME280;17906;47.684;10.806;2022-08-01T07:20:45;93496.59;;;20.19;57.42
16738;BME280;17906;47.684;10.806;2022-08-01T07:23:13;93495.66;;;20.23;55.89
16738;BME280;17906;47.684;10.806;2022-08-01T07:25:40;93485.94;;;20.45;56.19
16738;BME280;17906;47.684;10.806;2022-08-01T07:28:07;93482.09;;;20.60;54.01
16738;BME280;17906;47.684;10.806;2022-08-01T07:30:34;93481.19;;;20.78;55.52
16738;BME280;17906;47.684;10.806;2022-08-01T07:33:01;93486.63;;;20.83;56.03
16738;BME280;17906;47.684;10.806;2022-08-01T07:35:28;93479.34;;;21.01;52.90
16738;BME280;17906;47.684;10.806;2022-08-01T07:37:54;93480.66;;;21.17;52.75
16738;BME280;17906;47.684;10.806;2022-08-01T07:40:22;93472.75;;;21.52;51.75
16738;BME280;17906;47.684;10.806;2022-08-01T07:42:49;93484.19;;;21.45;52.59
16738;BME280;17906;47.684;10.806;2022-08-01T07:45:16;93478.84;;;21.62;52.73
16738;BME280;17906;47.684;10.806;2022-08-01T07:47:42;93477.88;;;21.45;52.78
16738;BME280;17906;47.684;10.806;2022-08-01T07:50:10;93480.03;;;21.48;52.74
16738;BME280;17906;47.684;10.806;2022-08-01T07:52:37;93473.78;;;21.78;50.96
16738;BME280;17906;47.684;10.806;2022-08-01T07:55:05;93473.66;;;21.83;50.11
16738;BME280;17906;47.684;10.806;2022-08-01T07:57:33;93467.91;;;22.38;49.90
16738;BME280;17906;47.684;10.806;2022-08-01T08:00:00;93466.06;;;22.65;48.96
16738;BME280;17906;47.684;10.806;2022-08-01T08:02:27;93470.00;;;23.03;46.95
16738;BME280;17906;47.684;10.806;2022-08-01T08:04:53;93465.56;;;23.42;49.12
16738;BME280;17906;47.684;10.806;2022-08-01T08:07:20;93458.94;;;23.69;47.35
16738;BME280;17906;47.684;10.806;2022-08-01T08:09:46;93462.53;;;23.78;46.77
16738;BME280;17906;47.684;10.806;2022-08-01T08:12:13;93462.16;;;23.62;46.37
16738;BME280;17906;47.684;10.806;2022-08-01T08:14:41;93462.16;;;23.45;46.71
16738;BME280;17906;47.684;10.806;2022-08-01T08:17:08;93466.59;;;23.55;45.45
16738;BME280;17906;47.684;10.806;2022-08-01T08:19:34;93463.81;;;23.63;44.50
16738;BME280;17906;47.684;10.806;2022-08-01T08:22:03;93461.84;;;23.73;44.02
16738;BME280;17906;47.684;10.806;2022-08-01T08:24:30;93459.25;;;23.93;44.80
16738;BME280;17906;47.684;10.806;2022-08-01T08:26:58;93471.19;;;24.11;42.97
16738;BME280;17906;47.684;10.806;2022-08-01T08:29:25;93465.44;;;24.42;43.68
16738;BME280;17906;47.684;10.806;2022-08-01T08:31:54;93458.38;;;24.62;44.71
16738;BME280;17906;47.684;10.806;2022-08-01T08:34:20;93457.78;;;24.95;43.36
16738;BME280;17906;47.684;10.806;2022-08-01T08:36:47;93465.47;;;24.89;43.82
16738;BME280;17906;47.684;10.806;2022-08-01T08:39:14;93455.53;;;24.79;43.75
16738;BME280;17906;47.684;10.806;2022-08-01T08:41:41;93455.53;;;24.88;44.27
16738;BME280;17906;47.684;10.806;2022-08-01T08:44:09;93458.66;;;24.78;42.72
16738;BME280;17906;47.684;10.806;2022-08-01T08:46:40;93453.19;;;24.99;42.01
16738;BME280;17906;47.684;10.806;2022-08-01T08:49:09;93455.97;;;25.28;43.46
16738;BME280;17906;47.684;10.806;2022-08-01T08:51:39;93453.53;;;25.27;42.18
16738;BME280;17906;47.684;10.806;2022-08-01T08:54:08;93453.91;;;25.76;41.79
16738;BME280;17906;47.684;10.806;2022-08-01T08:56:38;93453.53;;;26.40;39.19
16738;BME280;17906;47.684;10.806;2022-08-01T08:59:05;93460.63;;;26.49;42.04
16738;BME280;17906;47.684;10.806;2022-08-01T09:01:32;93454.66;;;26.60;39.83
16738;BME280;17906;47.684;10.806;2022-08-01T09:04:00;93458.78;;;26.53;38.80
16738;BME280;17906;47.684;10.806;2022-08-01T09:06:28;93454.69;;;26.72;39.51
16738;BME280;17906;47.684;10.806;2022-08-01T09:08:55;93461.28;;;26.67;39.35
16738;BME280;17906;47.684;10.806;2022-08-01T09:11:22;93468.13;;;26.70;37.54
16738;BME280;17906;47.684;10.806;2022-08-01T09:14:02;93464.59;;;26.94;38.73
16738;BME280;17906;47.684;10.806;2022-08-01T09:16:29;93461.56;;;27.11;38.89
16738;BME280;17906;47.684;10.806;2022-08-01T09:19:06;93455.81;;;27.28;38.98
16738;BME280;17906;47.684;10.806;2022-08-01T09:21:35;93463.06;;;26.96;35.51
16738;BME280;17906;47.684;10.806;2022-08-01T09:24:02;93462.66;;;27.55;37.30
16738;BME280;17906;47.684;10.806;2022-08-01T09:26:32;93451.50;;;27.67;38.20
16738;BME280;17906;47.684;10.806;2022-08-01T09:28:59;93452.09;;;27.61;39.83
16738;BME280;17906;47.684;10.806;2022-08-01T09:31:27;93456.34;;;27.95;37.66
16738;BME280;17906;47.684;10.806;2022-08-01T09:33:55;93448.91;;;27.99;35.79
16738;BME280;17906;47.684;10.806;2022-08-01T09:36:24;93442.84;;;27.97;35.84
16738;BME280;17906;47.684;10.806;2022-08-01T09:38:54;93445.22;;;28.35;35.04
16738;BME280;17906;47.684;10.806;2022-08-01T09:41:29;93449.38;;;28.01;37.53
16738;BME280;17906;47.684;10.806;2022-08-01T09:43:56;93451.81;;;28.43;36.36
16738;BME280;17906;47.684;10.806;2022-08-01T09:46:24;93440.56;;;29.14;35.67
16738;BME280;17906;47.684;10.806;2022-08-01T09:48:58;93444.09;;;29.43;34.85
16738;BME280;17906;47.684;10.806;2022-08-01T09:51:31;93442.84;;;29.09;35.45
16738;BME280;17906;47.684;10.806;2022-08-01T09:54:00;93445.88;;;28.44;35.48
16738;BME280;17906;47.684;10.806;2022-08-01T09:56:36;93436.31;;;27.40;37.07
16738;BME280;17906;47.684;10.806;2022-08-01T09:59:03;93441.66;;;27.21;39.89
16738;BME280;17906;47.684;10.806;2022-08-01T10:01:43;93442.34;;;27.06;38.06
16738;BME280;17906;47.684;10.806;2022-08-01T10:04:12;93438.50;;;26.20;40.45
16738;BME280;17906;47.684;10.806;2022-08-01T10:06:40;93436.13;;;25.89;40.93
16738;BME280;17906;47.684;10.806;2022-08-01T10:09:10;93441.84;;;25.92;42.16
16738;BME280;17906;47.684;10.806;2022-08-01T10:11:37;93437.63;;;25.45;41.83
16738;BME280;17906;47.684;10.806;2022-08-01T10:14:05;93431.97;;;25.83;41.20
16738;BME280;17906;47.684;10.806;2022-08-01T10:16:34;93428.78;;;25.72;40.21
16738;BME280;17906;47.684;10.806;2022-08-01T10:19:02;93434.78;;;25.53;41.52
16738;BME280;17906;47.684;10.806;2022-08-01T10:21:32;93426.31;;;24.82;42.77
16738;BME280;17906;47.684;10.806;2022-08-01T10:23:59;93426.28;;;24.91;44.59
16738;BME280;17906;47.684;10.806;2022-08-01T10:26:31;93424.00;;;25.22;43.19
16738;BME280;17906;47.684;10.806;2022-08-01T10:28:59;93421.84;;;25.78;42.21
16738;BME280;17906;47.684;10.806;2022-08-01T10:31:25;93420.34;;;25.81;41.45
16738;BME280;17906;47.684;10.806;2022-08-01T10:33:57;93412.50;;;25.62;42.11
16738;BME280;17906;47.684;10.806;2022-08-01T10:36:24;93408.63;;;25.96;41.62
16738;BME280;17906;47.684;10.806;2022-08-01T10:38:52;93405.56;;;26.43;40.24
16738;BME280;17906;47.684;10.806;2022-08-01T10:41:20;93406.81;;;26.66;40.53
16738;BME280;17906;47.684;10.806;2022-08-01T10:43:49;93416.22;;;26.08;40.24
16738;BME280;17906;47.684;10.806;2022-08-01T10:46:18;93410.38;;;26.21;40.78
16738;BME280;17906;47.684;10.806;2022-08-01T10:48:49;93405.81;;;26.05;40.03
16738;BME280;17906;47.684;10.806;2022-08-01T10:51:20;93402.09;;;26.13;39.83
16738;BME280;17906;47.684;10.806;2022-08-01T10:53:50;93402.81;;;25.47;40.53
16738;BME280;17906;47.684;10.806;2022-08-01T10:56:17;93391.69;;;25.68;40.66
16738;BME280;17906;47.684;10.806;2022-08-01T10:58:46;93399.25;;;25.17;39.99
16738;BME280;17906;47.684;10.806;2022-08-01T11:01:22;93385.56;;;25.62;38.55
16738;BME280;17906;47.684;10.806;2022-08-01T11:04:04;93389.53;;;26.15;41.47
16738;BME280;17906;47.684;10.806;2022-08-01T11:06:52;93392.66;;;26.59;36.58
16738;BME280;17906;47.684;10.806;2022-08-01T11:09:30;93385.97;;;26.72;39.06
16738;BME280;17906;47.684;10.806;2022-08-01T11:12:07;93384.06;;;26.19;33.82
16738;BME280;17906;47.684;10.806;2022-08-01T11:17:43;93376.91;;;26.63;35.88
16738;BME280;17906;47.684;10.806;2022-08-01T11:20:14;93371.59;;;26.95;38.07
16738;BME280;17906;47.684;10.806;2022-08-01T11:26:09;93374.47;;;26.62;37.76
16738;BME280;17906;47.684;10.806;2022-08-01T11:28:36;93369.84;;;27.14;38.64
16738;BME280;17906;47.684;10.806;2022-08-01T11:31:25;93365.09;;;27.03;37.20
16738;BME280;17906;47.684;10.806;2022-08-01T11:33:53;93366.69;;;27.40;38.54
16738;BME280;17906;47.684;10.806;2022-08-01T11:36:21;93355.50;;;27.25;33.64
16738;BME280;17906;47.684;10.806;2022-08-01T11:38:49;93362.56;;;27.34;34.00
16738;BME280;17906;47.684;10.806;2022-08-01T11:41:36;93362.09;;;26.96;35.83
16738;BME280;17906;47.684;10.806;2022-08-01T11:44:05;93363.69;;;26.15;36.80
16738;BME280;17906;47.684;10.806;2022-08-01T11:46:52;93363.16;;;26.34;37.45
16738;BME280;17906;47.684;10.806;2022-08-01T11:52:26;93353.94;;;26.66;38.67
16738;BME280;17906;47.684;10.806;2022-08-01T11:54:54;93361.28;;;26.83;36.42
16738;BME280;17906;47.684;10.806;2022-08-01T11:57:22;93360.53;;;26.49;36.83
16738;BME280;17906;47.684;10.806;2022-08-01T11:59:50;93361.44;;;26.53;37.45
16738;BME280;17906;47.684;10.806;2022-08-01T12:02:20;93358.84;;;26.24;36.54
16738;BME280;17906;47.684;10.806;2022-08-01T12:04:49;93361.09;;;26.43;36.83
16738;BME280;17906;47.684;10.806;2022-08-01T12:07:17;93354.63;;;26.51;36.46
16738;BME280;17906;47.684;10.806;2022-08-01T12:09:44;93349.78;;;26.84;36.89
16738;BME280;17906;47.684;10.806;2022-08-01T12:12:19;93345.69;;;27.43;37.70
16738;BME280;17906;47.684;10.806;2022-08-01T12:14:58;93343.63;;;27.15;35.88
16738;BME280;17906;47.684;10.806;2022-08-01T12:17:29;93347.16;;;26.31;35.80
16738;BME280;17906;47.684;10.806;2022-08-01T12:19:58;93350.00;;;26.67;38.78
16738;BME280;17906;47.684;10.806;2022-08-01T12:22:25;93340.53;;;26.68;35.54
16738;BME280;17906;47.684;10.806;2022-08-01T12:24:52;93337.16;;;26.75;36.50
16738;BME280;17906;47.684;10.806;2022-08-01T12:27:26;93341.06;;;27.10;34.75
16738;BME280;17906;47.684;10.806;2022-08-01T12:29:54;93344.34;;;26.88;34.68
16738;BME280;17906;47.684;10.806;2022-08-01T12:32:23;93341.56;;;27.25;36.56
16738;BME280;17906;47.684;10.806;2022-08-01T12:34:50;93336.59;;;27.18;35.58
16738;BME280;17906;47.684;10.806;2022-08-01T12:37:18;93337.72;;;27.05;36.37
16738;BME280;17906;47.684;10.806;2022-08-01T12:39:46;93337.50;;;26.85;34.52
16738;BME280;17906;47.684;10.806;2022-08-01T12:42:13;93328.09;;;26.78;36.32
16738;BME280;17906;47.684;10.806;2022-08-01T12:44:43;93335.59;;;26.53;33.92
16738;BME280;17906;47.684;10.806;2022-08-01T12:47:11;93334.63;;;26.24;35.39
16738;BME280;17906;47.684;10.806;2022-08-01T12:49:40;93327.63;;;26.51;38.91
16738;BME280;17906;47.684;10.806;2022-08-01T12:52:08;93331.31;;;26.55;35.75
16738;BME280;17906;47.684;10.806;2022-08-01T12:55:10;93319.59;;;26.25;35.77
16738;BME280;17906;47.684;10.806;2022-08-01T12:57:39;93316.81;;;26.25;37.66
16738;BME280;17906;47.684;10.806;2022-08-01T13:00:15;93322.50;;;26.41;36.15
16738;BME280;17906;47.684;10.806;2022-08-01T13:02:44;93318.09;;;26.40;36.06
16738;BME280;17906;47.684;10.806;2022-08-01T13:05:11;93309.97;;;26.23;35.18
16738;BME280;17906;47.684;10.806;2022-08-01T13:07:41;93313.78;;;26.18;35.17
16738;BME280;17906;47.684;10.806;2022-08-01T13:10:10;93314.84;;;26.26;34.54